sensor_id;sensor_type;location;lat;lon;timestamp;P1;durP1;ratioP1;P2;durP2;ratioP2
68455;SDS011;55437;55.046;38.838;2022-11-22T00:00:10;37.80;;;13.05;;
68455;SDS011;55437;55.046;38.838;2022-11-22T00:02:36;29.60;;;11.45;;
68455;SDS011;55437;55.046;38.838;2022-11-22T00:05:02;39.15;;;12.48;;
68455;SDS011;55437;55.046;38.838;2022-11-22T00:07:29;25.38;;;9.48;;
68455;SDS011;55437;55.046;38.838;2022-11-22T00:09:55;35.90;;;11.80;;
68455;SDS011;55437;55.046;38.838;2022-11-22T00:12:21;23.20;;;9.07;;
68455;SDS011;55437;55.046;38.838;2022-11-22T00:14:46;27.05;;;10.68;;
68455;SDS011;55437;55.046;38.838;2022-11-22T00:17:12;23.40;;;10.80;;
68455;SDS011;55437;55.046;38.838;2022-11-22T00:19:38;28.10;;;11.77;;
68455;SDS011;55437;55.046;38.838;2022-11-22T00:22:04;32.53;;;11.73;;
68455;SDS011;55437;55.046;38.838;2022-11-22T00:24:30;26.40;;;9.25;;
68455;SDS011;55437;55.046;38.838;2022-11-22T00:26:56;29.73;;;10.25;;
68455;SDS011;55437;55.046;38.838;2022-11-22T00:29:22;35.85;;;12.82;;
68455;SDS011;55437;55.046;38.838;2022-11-22T00:31:48;33.88;;;12.23;;
68455;SDS011;55437;55.046;38.838;2022-11-22T00:34:13;28.83;;;10.82;;
68455;SDS011;55437;55.046;38.838;2022-11-22T00:36:39;32.88;;;11.32;;
68455;SDS011;55437;55.046;38.838;2022-11-22T00:39:05;32.33;;;12.00;;
68455;SDS011;55437;55.046;38.838;2022-11-22T00:41:30;28.38;;;9.98;;
68455;SDS011;55437;55.046;38.838;2022-11-22T00:43:56;29.90;;;10.82;;
68455;SDS011;55437;55.046;38.838;2022-11-22T00:46:22;30.95;;;10.70;;
68455;SDS011;55437;55.046;38.838;2022-11-22T00:48:48;32.13;;;9.73;;
68455;SDS011;55437;55.046;38.838;2022-11-22T00:51:14;21.35;;;9.95;;
68455;SDS011;55437;55.046;38.838;2022-11-22T00:53:40;21.75;;;9.05;;
68455;SDS011;55437;55.046;38.838;2022-11-22T00:56:05;24.27;;;10.50;;
68455;SDS011;55437;55.046;38.838;2022-11-22T00:58:31;41.47;;;10.90;;
68455;SDS011;55437;55.046;38.838;2022-11-22T01:00:57;26.63;;;10.48;;
68455;SDS011;55437;55.046;38.838;2022-11-22T01:03:23;29.63;;;11.38;;
68455;SDS011;55437;55.046;38.838;2022-11-22T01:05:49;33.45;;;12.77;;
68455;SDS011;55437;55.046;38.838;2022-11-22T01:08:15;31.42;;;11.00;;
68455;SDS011;55437;55.046;38.838;2022-11-22T01:10:40;32.70;;;11.05;;
68455;SDS011;55437;55.046;38.838;2022-11-22T01:13:06;24.00;;;8.80;;
68455;SDS011;55437;55.046;38.838;2022-11-22T01:15:32;29.80;;;9.98;;
68455;SDS011;55437;55.046;38.838;2022-11-22T01:17:58;36.42;;;12.30;;
68455;SDS011;55437;55.046;38.838;2022-11-22T01:20:23;30.65;;;12.02;;
68455;SDS011;55437;55.046;38.838;2022-11-22T01:22:49;32.38;;;11.07;;
68455;SDS011;55437;55.046;38.838;2022-11-22T01:25:15;34.50;;;11.10;;
68455;SDS011;55437;55.046;38.838;2022-11-22T01:27:41;28.42;;;10.52;;
68455;SDS011;55437;55.046;38.838;2022-11-22T01:30:07;25.85;;;9.77;;
68455;SDS011;55437;55.046;38.838;2022-11-22T01:32:33;25.75;;;9.25;;
68455;SDS011;55437;55.046;38.838;2022-11-22T01:34:58;21.70;;;8.50;;
68455;SDS011;55437;55.046;38.838;2022-11-22T01:37:24;29.55;;;10.18;;
68455;SDS011;55437;55.046;38.838;2022-11-22T01:39:50;33.05;;;11.45;;
68455;SDS011;55437;55.046;38.838;2022-11-22T01:42:16;27.83;;;10.32;;
68455;SDS011;55437;55.046;38.838;2022-11-22T01:44:42;33.50;;;12.48;;
68455;SDS011;55437;55.046;38.838;2022-11-22T01:47:12;21.52;;;9.18;;
68455;SDS011;55437;55.046;38.838;2022-11-22T01:49:41;30.52;;;11.40;;
68455;SDS011;55437;55.046;38.838;2022-11-22T01:52:09;34.90;;;12.07;;
68455;SDS011;55437;55.046;38.838;2022-11-22T01:54:39;34.80;;;12.52;;
68455;SDS011;55437;55.046;38.838;2022-11-22T01:57:09;27.65;;;9.50;;
68455;SDS011;55437;55.046;38.838;2022-11-22T01:59:40;18.20;;;7.43;;
68455;SDS011;55437;55.046;38.838;2022-11-22T02:02:11;26.75;;;10.23;;
68455;SDS011;55437;55.046;38.838;2022-11-22T02:04:37;25.38;;;9.45;;
68455;SDS011;55437;55.046;38.838;2022-11-22T02:07:07;28.13;;;12.60;;
68455;SDS011;55437;55.046;38.838;2022-11-22T02:09:39;36.58;;;12.43;;
68455;SDS011;55437;55.046;38.838;2022-11-22T02:12:06;24.48;;;8.63;;
68455;SDS011;55437;55.046;38.838;2022-11-22T02:14:34;24.05;;;9.77;;
68455;SDS011;55437;55.046;38.838;2022-11-22T02:17:02;30.95;;;11.27;;
68455;SDS011;55437;55.046;38.838;2022-11-22T02:19:44;33.60;;;11.20;;
68455;SDS011;55437;55.046;38.838;2022-11-22T02:22:35;19.23;;;8.63;;
68455;SDS011;55437;55.046;38.838;2022-11-22T02:25:31;29.67;;;10.70;;
68455;SDS011;55437;55.046;38.838;2022-11-22T02:28:10;21.70;;;8.73;;
68455;SDS011;55437;55.046;38.838;2022-11-22T02:30:38;27.92;;;8.80;;
68455;SDS011;55437;55.046;38.838;2022-11-22T02:33:05;33.83;;;11.52;;
68455;SDS011;55437;55.046;38.838;2022-11-22T02:35:31;28.17;;;11.30;;
68455;SDS011;55437;55.046;38.838;2022-11-22T02:37:59;23.45;;;9.55;;
68455;SDS011;55437;55.046;38.838;2022-11-22T02:40:26;25.60;;;8.70;;
68455;SDS011;55437;55.046;38.838;2022-11-22T02:42:58;23.50;;;8.60;;
68455;SDS011;55437;55.046;38.838;2022-11-22T02:45:26;22.58;;;8.82;;
68455;SDS011;55437;55.046;38.838;2022-11-22T02:47:52;25.92;;;8.27;;
68455;SDS011;55437;55.046;38.838;2022-11-22T02:50:19;23.08;;;8.82;;
68455;SDS011;55437;55.046;38.838;2022-11-22T02:52:45;17.88;;;7.00;;
68455;SDS011;55437;55.046;38.838;2022-11-22T02:55:10;16.23;;;6.95;;
68455;SDS011;55437;55.046;38.838;2022-11-22T02:57:36;23.83;;;8.77;;
68455;SDS011;55437;55.046;38.838;2022-11-22T03:00:02;26.70;;;8.32;;
68455;SDS011;55437;55.046;38.838;2022-11-22T03:02:29;21.20;;;7.80;;
68455;SDS011;55437;55.046;38.838;2022-11-22T03:04:55;17.10;;;6.35;;
68455;SDS011;55437;55.046;38.838;2022-11-22T03:07:21;21.75;;;8.32;;
68455;SDS011;55437;55.046;38.838;2022-11-22T03:09:46;22.38;;;7.63;;
68455;SDS011;55437;55.046;38.838;2022-11-22T03:12:12;18.90;;;7.40;;
68455;SDS011;55437;55.046;38.838;2022-11-22T03:14:38;23.27;;;7.82;;
68455;SDS011;55437;55.046;38.838;2022-11-22T03:17:04;23.13;;;8.55;;
68455;SDS011;55437;55.046;38.838;2022-11-22T03:19:29;26.95;;;8.77;;
68455;SDS011;55437;55.046;38.838;2022-11-22T03:21:56;23.25;;;8.88;;
68455;SDS011;55437;55.046;38.838;2022-11-22T03:24:21;23.90;;;7.97;;
68455;SDS011;55437;55.046;38.838;2022-11-22T03:26:47;20.88;;;7.45;;
68455;SDS011;55437;55.046;38.838;2022-11-22T03:29:15;23.77;;;7.88;;
68455;SDS011;55437;55.046;38.838;2022-11-22T03:31:41;19.58;;;6.75;;
68455;SDS011;55437;55.046;38.838;2022-11-22T03:34:07;20.17;;;7.88;;
68455;SDS011;55437;55.046;38.838;2022-11-22T03:36:35;23.10;;;7.97;;
68455;SDS011;55437;55.046;38.838;2022-11-22T03:39:01;16.20;;;5.45;;
68455;SDS011;55437;55.046;38.838;2022-11-22T03:41:26;13.05;;;4.85;;
68455;SDS011;55437;55.046;38.838;2022-11-22T03:43:52;26.77;;;7.13;;
68455;SDS011;55437;55.046;38.838;2022-11-22T03:46:18;20.45;;;7.55;;
68455;SDS011;55437;55.046;38.838;2022-11-22T03:48:44;23.63;;;8.05;;
68455;SDS011;55437;55.046;38.838;2022-11-22T03:51:10;26.27;;;10.10;;
68455;SDS011;55437;55.046;38.838;2022-11-22T03:53:36;21.10;;;7.75;;
68455;SDS011;55437;55.046;38.838;2022-11-22T03:56:02;22.13;;;8.27;;
68455;SDS011;55437;55.046;38.838;2022-11-22T03:58:29;28.52;;;8.88;;
68455;SDS011;55437;55.046;38.838;2022-11-22T04:00:55;21.00;;;7.07;;
68455;SDS011;55437;55.046;38.838;2022-11-22T04:03:22;20.33;;;7.13;;
68455;SDS011;55437;55.046;38.838;2022-11-22T04:05:48;19.95;;;8.30;;
68455;SDS011;55437;55.046;38.838;2022-11-22T04:08:14;23.67;;;8.77;;
68455;SDS011;55437;55.046;38.838;2022-11-22T04:10:40;23.52;;;8.20;;
68455;SDS011;55437;55.046;38.838;2022-11-22T04:13:06;22.58;;;8.13;;
68455;SDS011;55437;55.046;38.838;2022-11-22T04:15:31;16.38;;;6.57;;
68455;SDS011;55437;55.046;38.838;2022-11-22T04:17:57;28.77;;;8.85;;
68455;SDS011;55437;55.046;38.838;2022-11-22T04:20:27;16.35;;;5.93;;
68455;SDS011;55437;55.046;38.838;2022-11-22T04:23:16;13.55;;;4.88;;
68455;SDS011;55437;55.046;38.838;2022-11-22T04:25:44;16.75;;;5.70;;
68455;SDS011;55437;55.046;38.838;2022-11-22T04:28:11;22.38;;;6.65;;
68455;SDS011;55437;55.046;38.838;2022-11-22T04:30:39;19.77;;;7.18;;
68455;SDS011;55437;55.046;38.838;2022-11-22T04:33:23;15.23;;;5.75;;
68455;SDS011;55437;55.046;38.838;2022-11-22T04:35:49;16.25;;;5.50;;
68455;SDS011;55437;55.046;38.838;2022-11-22T04:38:16;16.08;;;6.47;;
68455;SDS011;55437;55.046;38.838;2022-11-22T04:40:42;13.63;;;4.65;;
68455;SDS011;55437;55.046;38.838;2022-11-22T04:43:09;19.73;;;6.50;;
68455;SDS011;55437;55.046;38.838;2022-11-22T04:46:14;11.68;;;4.30;;
68455;SDS011;55437;55.046;38.838;2022-11-22T04:48:40;15.00;;;5.20;;
68455;SDS011;55437;55.046;38.838;2022-11-22T04:51:06;16.60;;;5.70;;
68455;SDS011;55437;55.046;38.838;2022-11-22T04:53:52;17.90;;;5.53;;
68455;SDS011;55437;55.046;38.838;2022-11-22T04:56:18;15.48;;;5.57;;
68455;SDS011;55437;55.046;38.838;2022-11-22T04:58:44;17.25;;;5.82;;
68455;SDS011;55437;55.046;38.838;2022-11-22T05:01:10;17.90;;;6.25;;
68455;SDS011;55437;55.046;38.838;2022-11-22T05:03:36;13.82;;;5.13;;
68455;SDS011;55437;55.046;38.838;2022-11-22T05:06:03;17.25;;;6.00;;
68455;SDS011;55437;55.046;38.838;2022-11-22T05:08:29;12.52;;;5.18;;
68455;SDS011;55437;55.046;38.838;2022-11-22T05:10:55;13.20;;;4.65;;
68455;SDS011;55437;55.046;38.838;2022-11-22T05:13:23;12.32;;;5.03;;
68455;SDS011;55437;55.046;38.838;2022-11-22T05:18:17;15.00;;;5.07;;
68455;SDS011;55437;55.046;38.838;2022-11-22T05:20:46;15.63;;;4.70;;
68455;SDS011;55437;55.046;38.838;2022-11-22T05:23:12;16.73;;;5.43;;
68455;SDS011;55437;55.046;38.838;2022-11-22T05:25:57;17.15;;;4.95;;
68455;SDS011;55437;55.046;38.838;2022-11-22T05:28:26;11.43;;;4.45;;
68455;SDS011;55437;55.046;38.838;2022-11-22T05:30:53;11.43;;;4.75;;
68455;SDS011;55437;55.046;38.838;2022-11-22T05:33:19;17.02;;;6.00;;
68455;SDS011;55437;55.046;38.838;2022-11-22T05:35:45;15.85;;;5.10;;
68455;SDS011;55437;55.046;38.838;2022-11-22T05:38:11;12.82;;;4.45;;
68455;SDS011;55437;55.046;38.838;2022-11-22T05:40:36;11.27;;;4.43;;
68455;SDS011;55437;55.046;38.838;2022-11-22T05:43:02;24.75;;;5.13;;
68455;SDS011;55437;55.046;38.838;2022-11-22T05:45:28;16.80;;;5.82;;
68455;SDS011;55437;55.046;38.838;2022-11-22T05:47:54;16.73;;;5.03;;
68455;SDS011;55437;55.046;38.838;2022-11-22T05:50:20;15.07;;;5.13;;
68455;SDS011;55437;55.046;38.838;2022-11-22T05:52:53;14.20;;;4.82;;
68455;SDS011;55437;55.046;38.838;2022-11-22T05:55:19;11.23;;;5.03;;
68455;SDS011;55437;55.046;38.838;2022-11-22T05:57:45;13.90;;;4.32;;
68455;SDS011;55437;55.046;38.838;2022-11-22T06:00:11;13.65;;;4.60;;
68455;SDS011;55437;55.046;38.838;2022-11-22T06:02:39;11.95;;;4.47;;
68455;SDS011;55437;55.046;38.838;2022-11-22T06:05:05;12.50;;;3.65;;
68455;SDS011;55437;55.046;38.838;2022-11-22T06:07:31;12.45;;;3.95;;
68455;SDS011;55437;55.046;38.838;2022-11-22T06:09:57;10.77;;;3.90;;
68455;SDS011;55437;55.046;38.838;2022-11-22T06:12:22;10.60;;;3.80;;
68455;SDS011;55437;55.046;38.838;2022-11-22T06:14:48;18.50;;;4.68;;
68455;SDS011;55437;55.046;38.838;2022-11-22T06:17:14;9.90;;;4.63;;
68455;SDS011;55437;55.046;38.838;2022-11-22T06:19:40;10.73;;;3.83;;
68455;SDS011;55437;55.046;38.838;2022-11-22T06:22:05;11.52;;;3.95;;
68455;SDS011;55437;55.046;38.838;2022-11-22T06:24:31;9.88;;;3.78;;
68455;SDS011;55437;55.046;38.838;2022-11-22T06:26:57;11.93;;;4.15;;
68455;SDS011;55437;55.046;38.838;2022-11-22T06:29:22;12.27;;;4.25;;
68455;SDS011;55437;55.046;38.838;2022-11-22T06:31:48;12.18;;;4.07;;
68455;SDS011;55437;55.046;38.838;2022-11-22T06:34:14;11.82;;;4.30;;
68455;SDS011;55437;55.046;38.838;2022-11-22T06:36:39;10.20;;;3.78;;
68455;SDS011;55437;55.046;38.838;2022-11-22T06:39:05;10.40;;;3.83;;
68455;SDS011;55437;55.046;38.838;2022-11-22T06:41:35;10.77;;;3.65;;
68455;SDS011;55437;55.046;38.838;2022-11-22T06:44:05;11.95;;;3.65;;
68455;SDS011;55437;55.046;38.838;2022-11-22T06:46:32;10.35;;;3.28;;
68455;SDS011;55437;55.046;38.838;2022-11-22T06:48:59;10.48;;;3.40;;
68455;SDS011;55437;55.046;38.838;2022-11-22T06:51:25;8.93;;;3.17;;
68455;SDS011;55437;55.046;38.838;2022-11-22T06:53:53;9.50;;;3.42;;
68455;SDS011;55437;55.046;38.838;2022-11-22T06:56:20;8.00;;;2.90;;
68455;SDS011;55437;55.046;38.838;2022-11-22T06:58:51;9.60;;;3.35;;
68455;SDS011;55437;55.046;38.838;2022-11-22T07:01:21;7.32;;;3.53;;
68455;SDS011;55437;55.046;38.838;2022-11-22T07:03:52;6.38;;;2.55;;
68455;SDS011;55437;55.046;38.838;2022-11-22T07:06:26;7.25;;;3.00;;
68455;SDS011;55437;55.046;38.838;2022-11-22T07:08:57;5.95;;;2.92;;
68455;SDS011;55437;55.046;38.838;2022-11-22T07:11:24;6.82;;;2.13;;
68455;SDS011;55437;55.046;38.838;2022-11-22T07:13:53;8.60;;;2.25;;
68455;SDS011;55437;55.046;38.838;2022-11-22T07:16:20;9.10;;;2.83;;
68455;SDS011;55437;55.046;38.838;2022-11-22T07:18:47;9.02;;;2.92;;
68455;SDS011;55437;55.046;38.838;2022-11-22T07:21:14;10.00;;;3.63;;
68455;SDS011;55437;55.046;38.838;2022-11-22T07:23:42;7.45;;;2.55;;
68455;SDS011;55437;55.046;38.838;2022-11-22T07:26:09;6.75;;;2.35;;
68455;SDS011;55437;55.046;38.838;2022-11-22T07:28:35;6.55;;;2.20;;
68455;SDS011;55437;55.046;38.838;2022-11-22T07:31:03;6.68;;;1.98;;
68455;SDS011;55437;55.046;38.838;2022-11-22T07:33:30;5.43;;;2.00;;
68455;SDS011;55437;55.046;38.838;2022-11-22T07:36:02;5.20;;;1.80;;
68455;SDS011;55437;55.046;38.838;2022-11-22T07:38:32;5.43;;;1.55;;
68455;SDS011;55437;55.046;38.838;2022-11-22T07:40:58;6.68;;;2.80;;
68455;SDS011;55437;55.046;38.838;2022-11-22T07:43:24;7.22;;;2.05;;
68455;SDS011;55437;55.046;38.838;2022-11-22T07:45:49;7.60;;;2.17;;
68455;SDS011;55437;55.046;38.838;2022-11-22T07:48:15;5.60;;;2.03;;
68455;SDS011;55437;55.046;38.838;2022-11-22T07:50:41;6.15;;;2.28;;
68455;SDS011;55437;55.046;38.838;2022-11-22T07:53:07;6.07;;;2.33;;
68455;SDS011;55437;55.046;38.838;2022-11-22T07:55:34;5.43;;;1.90;;
68455;SDS011;55437;55.046;38.838;2022-11-22T07:58:00;7.05;;;2.60;;
68455;SDS011;55437;55.046;38.838;2022-11-22T08:00:27;7.65;;;2.42;;
68455;SDS011;55437;55.046;38.838;2022-11-22T08:02:53;9.90;;;2.97;;
68455;SDS011;55437;55.046;38.838;2022-11-22T08:05:19;9.27;;;2.67;;
68455;SDS011;55437;55.046;38.838;2022-11-22T08:07:46;6.28;;;2.17;;
68455;SDS011;55437;55.046;38.838;2022-11-22T08:10:13;5.18;;;1.88;;
68455;SDS011;55437;55.046;38.838;2022-11-22T08:12:40;6.53;;;2.25;;
68455;SDS011;55437;55.046;38.838;2022-11-22T08:15:06;5.30;;;2.10;;
68455;SDS011;55437;55.046;38.838;2022-11-22T08:17:32;7.30;;;2.33;;
68455;SDS011;55437;55.046;38.838;2022-11-22T08:19:58;6.88;;;2.40;;
68455;SDS011;55437;55.046;38.838;2022-11-22T08:22:23;5.82;;;2.10;;
68455;SDS011;55437;55.046;38.838;2022-11-22T08:24:49;5.78;;;2.35;;
68455;SDS011;55437;55.046;38.838;2022-11-22T08:27:15;4.30;;;1.60;;
68455;SDS011;55437;55.046;38.838;2022-11-22T08:29:41;4.60;;;1.95;;
68455;SDS011;55437;55.046;38.838;2022-11-22T08:32:06;4.95;;;1.80;;
68455;SDS011;55437;55.046;38.838;2022-11-22T08:34:32;4.43;;;1.85;;
68455;SDS011;55437;55.046;38.838;2022-11-22T08:36:58;5.40;;;1.90;;
68455;SDS011;55437;55.046;38.838;2022-11-22T08:39:23;4.53;;;1.80;;
68455;SDS011;55437;55.046;38.838;2022-11-22T08:41:49;4.78;;;1.67;;
68455;SDS011;55437;55.046;38.838;2022-11-22T08:44:15;5.60;;;2.03;;
68455;SDS011;55437;55.046;38.838;2022-11-22T08:46:41;7.05;;;2.40;;
68455;SDS011;55437;55.046;38.838;2022-11-22T08:49:08;6.90;;;2.72;;
68455;SDS011;55437;55.046;38.838;2022-11-22T08:51:35;6.63;;;2.45;;
68455;SDS011;55437;55.046;38.838;2022-11-22T08:54:01;5.38;;;1.95;;
68455;SDS011;55437;55.046;38.838;2022-11-22T08:56:29;6.15;;;3.00;;
68455;SDS011;55437;55.046;38.838;2022-11-22T08:58:54;5.00;;;2.03;;
68455;SDS011;55437;55.046;38.838;2022-11-22T09:01:20;4.90;;;2.08;;
68455;SDS011;55437;55.046;38.838;2022-11-22T09:03:47;5.28;;;2.10;;
68455;SDS011;55437;55.046;38.838;2022-11-22T09:06:17;4.47;;;1.80;;
68455;SDS011;55437;55.046;38.838;2022-11-22T09:08:45;3.47;;;1.60;;
68455;SDS011;55437;55.046;38.838;2022-11-22T09:11:15;5.45;;;2.35;;
68455;SDS011;55437;55.046;38.838;2022-11-22T09:13:43;4.43;;;1.52;;
68455;SDS011;55437;55.046;38.838;2022-11-22T09:16:13;5.50;;;1.95;;
68455;SDS011;55437;55.046;38.838;2022-11-22T09:18:41;5.60;;;2.10;;
68455;SDS011;55437;55.046;38.838;2022-11-22T09:21:08;5.88;;;2.42;;
68455;SDS011;55437;55.046;38.838;2022-11-22T09:23:46;7.20;;;2.50;;
68455;SDS011;55437;55.046;38.838;2022-11-22T09:26:17;5.25;;;2.40;;
68455;SDS011;55437;55.046;38.838;2022-11-22T09:28:45;4.10;;;1.60;;
68455;SDS011;55437;55.046;38.838;2022-11-22T09:31:20;6.20;;;2.08;;
68455;SDS011;55437;55.046;38.838;2022-11-22T09:33:47;5.30;;;2.05;;
68455;SDS011;55437;55.046;38.838;2022-11-22T09:38:41;6.80;;;2.70;;
68455;SDS011;55437;55.046;38.838;2022-11-22T09:52:40;6.18;;;3.22;;
68455;SDS011;55437;55.046;38.838;2022-11-22T10:00:56;6.25;;;2.58;;
68455;SDS011;55437;55.046;38.838;2022-11-22T10:06:16;6.93;;;2.75;;
68455;SDS011;55437;55.046;38.838;2022-11-22T10:09:00;7.45;;;2.50;;
68455;SDS011;55437;55.046;38.838;2022-11-22T10:17:34;7.00;;;2.40;;
68455;SDS011;55437;55.046;38.838;2022-11-22T10:20:18;6.20;;;3.10;;
68455;SDS011;55437;55.046;38.838;2022-11-22T10:22:44;10.68;;;4.97;;
68455;SDS011;55437;55.046;38.838;2022-11-22T10:27:42;9.18;;;4.05;;
68455;SDS011;55437;55.046;38.838;2022-11-22T10:30:16;9.25;;;3.67;;
68455;SDS011;55437;55.046;38.838;2022-11-22T10:32:51;7.72;;;3.45;;
68455;SDS011;55437;55.046;38.838;2022-11-22T10:41:23;8.73;;;3.63;;
68455;SDS011;55437;55.046;38.838;2022-11-22T10:49:40;12.80;;;5.05;;
68455;SDS011;55437;55.046;38.838;2022-11-22T10:52:19;21.92;;;9.55;;
68455;SDS011;55437;55.046;38.838;2022-11-22T10:58:29;9.40;;;3.80;;
68455;SDS011;55437;55.046;38.838;2022-11-22T11:04:14;8.27;;;2.47;;
68455;SDS011;55437;55.046;38.838;2022-11-22T11:06:49;8.20;;;3.80;;
68455;SDS011;55437;55.046;38.838;2022-11-22T11:09:22;7.72;;;2.80;;
68455;SDS011;55437;55.046;38.838;2022-11-22T11:12:15;15.55;;;7.05;;
68455;SDS011;55437;55.046;38.838;2022-11-22T11:14:47;15.30;;;7.35;;
68455;SDS011;55437;55.046;38.838;2022-11-22T11:17:25;10.13;;;4.45;;
68455;SDS011;55437;55.046;38.838;2022-11-22T11:22:22;7.78;;;3.15;;
68455;SDS011;55437;55.046;38.838;2022-11-22T11:24:50;8.18;;;3.15;;
68455;SDS011;55437;55.046;38.838;2022-11-22T11:27:17;13.95;;;5.47;;
68455;SDS011;55437;55.046;38.838;2022-11-22T11:32:19;8.75;;;2.83;;
68455;SDS011;55437;55.046;38.838;2022-11-22T11:34:54;7.35;;;3.05;;
68455;SDS011;55437;55.046;38.838;2022-11-22T11:37:23;10.02;;;4.82;;
68455;SDS011;55437;55.046;38.838;2022-11-22T11:39:59;12.68;;;3.85;;
68455;SDS011;55437;55.046;38.838;2022-11-22T11:42:29;13.43;;;6.15;;
68455;SDS011;55437;55.046;38.838;2022-11-22T11:47:53;10.63;;;3.88;;
68455;SDS011;55437;55.046;38.838;2022-11-22T11:50:23;12.57;;;4.35;;
68455;SDS011;55437;55.046;38.838;2022-11-22T11:52:52;7.28;;;2.90;;
68455;SDS011;55437;55.046;38.838;2022-11-22T11:55:20;11.95;;;4.35;;
68455;SDS011;55437;55.046;38.838;2022-11-22T11:57:47;15.48;;;7.65;;
68455;SDS011;55437;55.046;38.838;2022-11-22T12:00:26;11.57;;;3.95;;
68455;SDS011;55437;55.046;38.838;2022-11-22T12:03:00;8.02;;;3.25;;
68455;SDS011;55437;55.046;38.838;2022-11-22T12:05:31;13.57;;;5.95;;
68455;SDS011;55437;55.046;38.838;2022-11-22T12:07:58;15.13;;;5.47;;
68455;SDS011;55437;55.046;38.838;2022-11-22T12:27:25;8.82;;;3.38;;
68455;SDS011;55437;55.046;38.838;2022-11-22T12:29:51;8.27;;;3.72;;
68455;SDS011;55437;55.046;38.838;2022-11-22T12:37:30;7.47;;;2.40;;
68455;SDS011;55437;55.046;38.838;2022-11-22T12:40:13;7.93;;;2.83;;
68455;SDS011;55437;55.046;38.838;2022-11-22T12:43:07;7.38;;;3.00;;
68455;SDS011;55437;55.046;38.838;2022-11-22T12:45:54;10.60;;;3.75;;
68455;SDS011;55437;55.046;38.838;2022-11-22T12:51:00;7.00;;;2.45;;
68455;SDS011;55437;55.046;38.838;2022-11-22T12:53:35;8.98;;;3.08;;
68455;SDS011;55437;55.046;38.838;2022-11-22T13:01:51;8.98;;;4.22;;
68455;SDS011;55437;55.046;38.838;2022-11-22T13:10:30;11.40;;;3.50;;
68455;SDS011;55437;55.046;38.838;2022-11-22T13:13:04;7.82;;;2.85;;
68455;SDS011;55437;55.046;38.838;2022-11-22T13:15:38;8.07;;;2.72;;
68455;SDS011;55437;55.046;38.838;2022-11-22T13:18:08;7.63;;;2.67;;
68455;SDS011;55437;55.046;38.838;2022-11-22T13:20:38;6.20;;;2.55;;
68455;SDS011;55437;55.046;38.838;2022-11-22T13:28:52;7.43;;;2.42;;
68455;SDS011;55437;55.046;38.838;2022-11-22T13:31:19;6.78;;;2.15;;
68455;SDS011;55437;55.046;38.838;2022-11-22T13:38:55;6.00;;;2.13;;
68455;SDS011;55437;55.046;38.838;2022-11-22T13:44:36;6.00;;;2.50;;
68455;SDS011;55437;55.046;38.838;2022-11-22T13:49:47;6.13;;;2.35;;
68455;SDS011;55437;55.046;38.838;2022-11-22T13:55:09;8.10;;;2.90;;
68455;SDS011;55437;55.046;38.838;2022-11-22T13:57:45;5.40;;;2.17;;
68455;SDS011;55437;55.046;38.838;2022-11-22T14:02:40;6.47;;;2.38;;
68455;SDS011;55437;55.046;38.838;2022-11-22T14:07:58;8.50;;;3.53;;
68455;SDS011;55437;55.046;38.838;2022-11-22T14:10:27;7.75;;;2.40;;
68455;SDS011;55437;55.046;38.838;2022-11-22T14:15:46;5.00;;;1.92;;
68455;SDS011;55437;55.046;38.838;2022-11-22T14:21:07;6.47;;;2.25;;
68455;SDS011;55437;55.046;38.838;2022-11-22T14:26:32;5.43;;;1.98;;
68455;SDS011;55437;55.046;38.838;2022-11-22T14:31:58;5.57;;;2.08;;
68455;SDS011;55437;55.046;38.838;2022-11-22T14:34:28;4.97;;;2.65;;
68455;SDS011;55437;55.046;38.838;2022-11-22T14:47:36;7.65;;;3.63;;
68455;SDS011;55437;55.046;38.838;2022-11-22T14:52:52;8.50;;;3.25;;
68455;SDS011;55437;55.046;38.838;2022-11-22T14:55:31;6.93;;;2.33;;
68455;SDS011;55437;55.046;38.838;2022-11-22T14:58:21;6.13;;;2.58;;
68455;SDS011;55437;55.046;38.838;2022-11-22T15:06:17;6.60;;;2.92;;
68455;SDS011;55437;55.046;38.838;2022-11-22T15:08:57;7.45;;;2.85;;
68455;SDS011;55437;55.046;38.838;2022-11-22T15:11:52;6.88;;;3.33;;
68455;SDS011;55437;55.046;38.838;2022-11-22T15:17:29;6.65;;;2.97;;
68455;SDS011;55437;55.046;38.838;2022-11-22T15:19:55;7.32;;;3.20;;
68455;SDS011;55437;55.046;38.838;2022-11-22T15:22:24;7.05;;;2.65;;
68455;SDS011;55437;55.046;38.838;2022-11-22T15:24:53;7.30;;;3.45;;
68455;SDS011;55437;55.046;38.838;2022-11-22T15:27:27;7.70;;;2.97;;
68455;SDS011;55437;55.046;38.838;2022-11-22T15:32:33;13.60;;;4.53;;
68455;SDS011;55437;55.046;38.838;2022-11-22T15:35:14;7.10;;;3.28;;
68455;SDS011;55437;55.046;38.838;2022-11-22T15:38:24;7.35;;;2.78;;
68455;SDS011;55437;55.046;38.838;2022-11-22T15:40:36;7.82;;;3.15;;
68455;SDS011;55437;55.046;38.838;2022-11-22T15:43:14;9.05;;;3.78;;
68455;SDS011;55437;55.046;38.838;2022-11-22T15:45:45;7.97;;;3.42;;
68455;SDS011;55437;55.046;38.838;2022-11-22T15:48:16;8.43;;;3.20;;
68455;SDS011;55437;55.046;38.838;2022-11-22T15:53:29;8.73;;;3.53;;
68455;SDS011;55437;55.046;38.838;2022-11-22T15:56:17;9.30;;;3.50;;
68455;SDS011;55437;55.046;38.838;2022-11-22T15:58:52;7.43;;;2.92;;
68455;SDS011;55437;55.046;38.838;2022-11-22T16:01:19;6.38;;;2.65;;
68455;SDS011;55437;55.046;38.838;2022-11-22T16:03:54;7.28;;;2.88;;
68455;SDS011;55437;55.046;38.838;2022-11-22T16:08:50;6.38;;;3.08;;
68455;SDS011;55437;55.046;38.838;2022-11-22T16:11:22;7.70;;;2.90;;
68455;SDS011;55437;55.046;38.838;2022-11-22T16:13:53;6.93;;;2.58;;
68455;SDS011;55437;55.046;38.838;2022-11-22T16:16:20;6.32;;;2.50;;
68455;SDS011;55437;55.046;38.838;2022-11-22T16:18:51;5.80;;;2.25;;
68455;SDS011;55437;55.046;38.838;2022-11-22T16:21:18;5.70;;;2.20;;
68455;SDS011;55437;55.046;38.838;2022-11-22T16:23:45;6.22;;;2.20;;
68455;SDS011;55437;55.046;38.838;2022-11-22T16:28:46;5.45;;;2.08;;
68455;SDS011;55437;55.046;38.838;2022-11-22T16:31:16;5.10;;;2.28;;
68455;SDS011;55437;55.046;38.838;2022-11-22T16:33:54;6.22;;;2.63;;
68455;SDS011;55437;55.046;38.838;2022-11-22T16:36:21;4.47;;;2.00;;
68455;SDS011;55437;55.046;38.838;2022-11-22T16:38:49;4.45;;;1.70;;
68455;SDS011;55437;55.046;38.838;2022-11-22T16:41:18;4.70;;;2.33;;
68455;SDS011;55437;55.046;38.838;2022-11-22T16:43:47;5.97;;;2.28;;
68455;SDS011;55437;55.046;38.838;2022-11-22T16:46:16;4.75;;;1.88;;
68455;SDS011;55437;55.046;38.838;2022-11-22T16:48:44;5.88;;;2.10;;
68455;SDS011;55437;55.046;38.838;2022-11-22T16:51:12;6.18;;;2.00;;
68455;SDS011;55437;55.046;38.838;2022-11-22T16:53:43;5.15;;;1.90;;
68455;SDS011;55437;55.046;38.838;2022-11-22T16:56:25;4.05;;;1.63;;
68455;SDS011;55437;55.046;38.838;2022-11-22T16:58:56;4.35;;;1.90;;
68455;SDS011;55437;55.046;38.838;2022-11-22T17:01:23;5.70;;;2.35;;
68455;SDS011;55437;55.046;38.838;2022-11-22T17:03:54;4.05;;;1.63;;
68455;SDS011;55437;55.046;38.838;2022-11-22T17:06:22;3.95;;;1.67;;
68455;SDS011;55437;55.046;38.838;2022-11-22T17:08:50;4.03;;;1.65;;
68455;SDS011;55437;55.046;38.838;2022-11-22T17:11:18;4.88;;;1.60;;
68455;SDS011;55437;55.046;38.838;2022-11-22T17:13:45;4.85;;;2.05;;
68455;SDS011;55437;55.046;38.838;2022-11-22T17:16:11;3.83;;;1.63;;
68455;SDS011;55437;55.046;38.838;2022-11-22T17:18:38;4.18;;;1.60;;
68455;SDS011;55437;55.046;38.838;2022-11-22T17:21:04;4.65;;;1.83;;